Time;durP1;ratioP1;P1;durP2;ratioP2;P2;SDS_P1;SDS_P2;PMS_P1;PMS_P2;Temp;Humidity;BMP_temperature;BMP_pressure;BME280_temperature;BME280_humidity;BME280_pressure;Samples;Min_cycle;Max_cycle;Signal;HPM_P1;HPM_P2
2023/12/03 00:02:02;;;;;;;;;;;-4.70;99.90;;;-5.93;100.00;98176.38;5000742;28;1409;-85
2023/12/03 00:04:30;;;;;;;;;;;-4.60;99.90;;;-6.03;100.00;98176.91;5000264;28;1402;-85
2023/12/03 00:06:59;;;;;;;;;;;-4.70;99.90;;;-5.99;100.00;98180.41;5016687;28;1977;-85
2023/12/03 00:09:27;;;;;;;;;;;-4.70;99.90;;;-6.19;100.00;98180.59;4996367;28;1451;-85
2023/12/03 00:11:54;;;;;;;;;;;-4.70;99.90;;;-6.01;100.00;98177.81;4996566;28;1484;-85
2023/12/03 00:14:21;;;;;;;;;;;-4.70;99.90;;;-6.21;100.00;98179.69;5012489;28;1404;-85
2023/12/03 00:16:49;;;;;;;;;;;-4.70;99.90;;;-6.15;100.00;98184.94;5013905;28;1451;-85
2023/12/03 00:19:16;;;;;;;;;;;-4.70;99.90;;;-6.21;100.00;98178.81;5016915;28;1378;-86
2023/12/03 00:21:43;;;;;;;;;;;-4.70;99.90;;;-6.15;100.00;98181.56;5013071;28;1453;-85
2023/12/03 00:24:10;;;;;;;;;;;-4.70;99.90;;;-6.08;100.00;98187.69;4997674;28;1281;-85
2023/12/03 00:26:37;;;;;;;;;;;-4.70;99.90;;;-6.14;100.00;98185.78;4999203;28;1898;-87
2023/12/03 00:29:05;;;;;;;;;;;-4.70;99.90;;;-6.16;100.00;98178.19;4997122;28;1573;-85
2023/12/03 00:31:34;;;;;;;;;;;-4.70;99.90;;;-6.12;100.00;98176.59;5014014;28;1440;-85
2023/12/03 00:34:02;;;;;;;;;;;-4.70;99.90;;;-6.14;100.00;98185.78;4997088;28;1531;-85
2023/12/03 00:36:29;;;;;;;;;;;-4.70;99.90;;;-6.16;100.00;98177.31;5017071;28;1562;-85
2023/12/03 00:38:56;;;;;;;;;;;-4.70;99.90;;;-6.08;100.00;98180.94;5014797;28;1565;-85
2023/12/03 00:41:26;;;;;;;;;;;-4.60;99.90;;;-6.14;100.00;98176.53;5015736;28;1702;-85
2023/12/03 00:43:53;;;;;;;;;;;-4.60;99.90;;;-6.12;100.00;98181.66;5002668;28;1587;-86
2023/12/03 00:46:21;;;;;;;;;;;-4.60;99.90;;;-5.99;100.00;98190.50;4997585;28;1887;-85
2023/12/03 00:48:49;;;;;;;;;;;-4.60;99.90;;;-5.92;100.00;98185.66;4999956;28;1459;-85
2023/12/03 00:51:16;;;;;;;;;;;-4.50;99.90;;;-6.03;100.00;98187.00;4998261;28;1485;-85
2023/12/03 00:53:43;;;;;;;;;;;-4.60;99.90;;;-6.02;100.00;98187.84;4996455;28;1351;-85
2023/12/03 00:56:11;;;;;;;;;;;-4.60;99.90;;;-6.05;100.00;98191.16;5011189;28;1367;-85
2023/12/03 00:58:38;;;;;;;;;;;-4.50;99.90;;;-6.03;100.00;98191.22;4981331;28;1690;-85
2023/12/03 01:01:05;;;;;;;;;;;-4.50;99.90;;;-6.10;100.00;98191.00;5015143;28;2229;-86
2023/12/03 01:03:32;;;;;;;;;;;-4.50;99.90;;;-6.02;100.00;98198.84;5013131;28;2405;-85
2023/12/03 01:06:00;;;;;;;;;;;-4.50;99.90;;;-5.97;100.00;98199.84;5012769;28;1910;-85
2023/12/03 01:08:28;;;;;;;;;;;-4.50;99.90;;;-5.94;100.00;98199.09;4993141;28;1541;-86
2023/12/03 01:10:55;;;;;;;;;;;-4.50;99.90;;;-6.00;100.00;98203.94;4995776;28;1530;-85
2023/12/03 01:13:23;;;;;;;;;;;-4.50;99.90;;;-6.02;100.00;98206.44;5013298;28;1516;-86
2023/12/03 01:15:51;;;;;;;;;;;-4.50;99.90;;;-6.00;100.00;98214.03;4998959;28;1442;-86
2023/12/03 01:18:18;;;;;;;;;;;-4.50;99.90;;;-6.01;100.00;98217.41;4995997;28;1542;-85
2023/12/03 01:20:45;;;;;;;;;;;-4.50;99.90;;;-5.99;100.00;98213.25;5012324;28;1579;-85
2023/12/03 01:23:13;;;;;;;;;;;-4.50;99.90;;;-5.93;100.00;98209.22;5014269;28;1650;-86
2023/12/03 01:25:39;;;;;;;;;;;-4.50;99.90;;;-5.96;100.00;98210.81;5013924;28;1914;-85
2023/12/03 01:28:06;;;;;;;;;;;-4.40;99.90;;;-5.96;100.00;98216.72;5012948;28;1528;-85
2023/12/03 01:30:35;;;;;;;;;;;-4.50;99.90;;;-5.88;100.00;98222.00;4998538;28;1762;-84
2023/12/03 01:33:02;;;;;;;;;;;-4.40;99.90;;;-5.85;100.00;98229.69;5013507;28;1417;-85
2023/12/03 01:35:29;;;;;;;;;;;-4.50;99.90;;;-5.89;100.00;98232.91;4986100;28;1493;-85
2023/12/03 01:37:56;;;;;;;;;;;-4.50;99.90;;;-5.95;100.00;98231.09;5019051;28;1312;-86
2023/12/03 01:40:23;;;;;;;;;;;-4.50;99.90;;;-5.98;100.00;98243.63;5000298;28;1263;-85
2023/12/03 01:42:52;;;;;;;;;;;-4.70;99.90;;;-6.13;100.00;98243.97;5018918;28;1456;-85
2023/12/03 01:45:19;;;;;;;;;;;-4.60;99.90;;;-6.02;100.00;98246.00;5014166;28;1995;-85
2023/12/03 01:47:46;;;;;;;;;;;-4.60;99.90;;;-5.92;100.00;98245.47;5015303;28;1510;-85
2023/12/03 01:50:14;;;;;;;;;;;-4.60;99.90;;;-5.84;100.00;98248.25;5016680;28;1276;-86
2023/12/03 01:52:41;;;;;;;;;;;-4.60;99.90;;;-5.80;100.00;98255.13;5017236;28;1096;-85
2023/12/03 01:55:11;;;;;;;;;;;-4.60;99.90;;;-5.75;100.00;98258.66;5004442;28;1367;-85
2023/12/03 01:57:39;;;;;;;;;;;-4.60;99.90;;;-5.64;100.00;98259.84;4998477;28;1690;-86
2023/12/03 02:00:06;;;;;;;;;;;-4.60;99.90;;;-5.57;100.00;98264.28;5019666;28;1334;-86
2023/12/03 02:02:34;;;;;;;;;;;-4.50;99.90;;;-5.67;100.00;98258.09;4999980;28;1293;-85
2023/12/03 02:05:02;;;;;;;;;;;-4.50;99.90;;;-5.49;100.00;98262.88;5002259;28;1410;-85
2023/12/03 02:07:30;;;;;;;;;;;-4.40;99.90;;;-5.31;100.00;98261.75;5017312;28;1906;-85
2023/12/03 02:09:59;;;;;;;;;;;-4.20;99.90;;;-5.46;100.00;98262.97;5000942;28;1153;-85
2023/12/03 02:12:27;;;;;;;;;;;-4.20;99.90;;;-5.32;100.00;98267.59;5022330;28;1071;-86
2023/12/03 02:14:54;;;;;;;;;;;-4.10;99.90;;;-5.16;100.00;98268.94;5016475;28;1468;-85
2023/12/03 02:17:21;;;;;;;;;;;-4.10;99.90;;;-5.16;100.00;98272.31;5002670;28;1449;-86
2023/12/03 02:19:49;;;;;;;;;;;-4.10;99.90;;;-5.18;100.00;98271.41;5024336;28;1117;-85
2023/12/03 02:22:16;;;;;;;;;;;-4.00;99.90;;;-5.14;100.00;98264.78;4999433;28;1496;-85
2023/12/03 02:24:43;;;;;;;;;;;-4.00;99.90;;;-4.97;100.00;98272.88;5018695;28;1173;-85
2023/12/03 02:27:10;;;;;;;;;;;-3.90;99.90;;;-5.20;100.00;98274.72;5000586;28;1993;-86
2023/12/03 02:29:37;;;;;;;;;;;-3.90;99.90;;;-5.08;100.00;98270.91;5017495;28;1466;-85
2023/12/03 02:32:05;;;;;;;;;;;-3.90;99.90;;;-5.05;100.00;98281.09;5000580;28;1395;-85
2023/12/03 02:34:33;;;;;;;;;;;-3.80;99.90;;;-4.97;100.00;98270.34;4999769;28;1410;-85
2023/12/03 02:37:00;;;;;;;;;;;-3.80;99.90;;;-4.75;100.00;98271.84;5015212;28;1273;-85
2023/12/03 02:39:27;;;;;;;;;;;-3.70;99.90;;;-4.85;100.00;98268.19;5013773;28;1297;-86
2023/12/03 02:41:57;;;;;;;;;;;-3.80;99.90;;;-4.67;100.00;98273.78;5018013;28;1045;-85
2023/12/03 02:44:24;;;;;;;;;;;-3.70;99.90;;;-4.84;100.00;98267.34;5000192;28;1336;-86
2023/12/03 02:46:51;;;;;;;;;;;-3.70;99.90;;;-4.68;100.00;98271.19;4982352;28;1914;-85
2023/12/03 02:49:18;;;;;;;;;;;-3.60;99.90;;;-4.74;100.00;98276.09;5002810;28;1233;-86
2023/12/03 02:51:46;;;;;;;;;;;-3.60;99.90;;;-4.63;100.00;98282.31;5020734;28;1082;-85
2023/12/03 02:54:14;;;;;;;;;;;-3.60;99.90;;;-4.53;100.00;98278.38;5015035;28;1098;-85
2023/12/03 02:56:42;;;;;;;;;;;-3.50;99.90;;;-4.60;100.00;98271.44;4999274;28;1331;-86
2023/12/03 02:59:09;;;;;;;;;;;-3.60;99.90;;;-4.58;100.00;98274.84;5018663;28;1979;-86
2023/12/03 03:01:36;;;;;;;;;;;-3.60;99.90;;;-4.79;100.00;98264.97;5016318;28;1374;-85
2023/12/03 03:04:03;;;;;;;;;;;-3.50;99.90;;;-4.77;100.00;98269.25;5000072;28;1361;-85
2023/12/03 03:06:31;;;;;;;;;;;-3.60;99.90;;;-4.71;100.00;98268.59;5021781;28;1949;-85
2023/12/03 03:08:58;;;;;;;;;;;-3.60;99.90;;;-4.79;100.00;98272.56;5016074;28;1688;-86
2023/12/03 03:11:25;;;;;;;;;;;-3.60;99.90;;;-4.74;100.00;98276.09;5018265;28;1121;-85
2023/12/03 03:13:52;;;;;;;;;;;-3.60;99.90;;;-4.81;100.00;98275.06;4998960;28;1139;-85
2023/12/03 03:16:24;;;;;;;;;;;-3.60;99.90;;;-4.86;100.00;98274.94;5015105;28;1382;-85
2023/12/03 03:18:51;;;;;;;;;;;-3.60;99.90;;;-4.77;100.00;98281.91;4982014;28;1329;-85
2023/12/03 03:21:18;;;;;;;;;;;-3.60;99.90;;;-4.77;100.00;98278.53;5019372;28;1169;-85
2023/12/03 03:23:45;;;;;;;;;;;-3.50;99.90;;;-4.82;100.00;98286.00;5018648;28;1308;-85
2023/12/03 03:26:12;;;;;;;;;;;-3.60;99.90;;;-4.71;100.00;98282.09;4998355;28;1992;-85
2023/12/03 03:28:39;;;;;;;;;;;-3.60;99.90;;;-4.54;100.00;98289.31;5015798;28;1295;-85
2023/12/03 03:31:06;;;;;;;;;;;-3.60;99.90;;;-4.69;100.00;98285.53;5016181;28;1459;-85
2023/12/03 03:33:33;;;;;;;;;;;-3.50;99.90;;;-4.66;100.00;98283.09;5005500;28;1605;-85
2023/12/03 03:36:00;;;;;;;;;;;-3.50;99.90;;;-4.60;100.00;98291.69;5019367;28;1305;-85
2023/12/03 03:38:27;;;;;;;;;;;-3.50;99.90;;;-4.60;100.00;98290.03;5008242;28;1515;-85
2023/12/03 03:40:54;;;;;;;;;;;-3.50;99.90;;;-4.68;100.00;98277.13;5002749;28;1083;-85
2023/12/03 03:43:21;;;;;;;;;;;-3.50;99.90;;;-4.63;100.00;98284.84;5023551;28;1520;-86
2023/12/03 03:45:49;;;;;;;;;;;-3.50;99.90;;;-4.52;100.00;98290.22;5020829;28;2392;-86
2023/12/03 03:48:17;;;;;;;;;;;-3.40;99.90;;;-4.71;100.00;98297.28;5021335;28;1304;-86
2023/12/03 03:50:44;;;;;;;;;;;-3.40;99.90;;;-4.68;100.00;98296.53;5019749;28;1243;-86
2023/12/03 03:53:11;;;;;;;;;;;-3.30;99.90;;;-4.59;100.00;98296.78;5001971;28;1483;-86
2023/12/03 03:55:38;;;;;;;;;;;-3.30;99.90;;;-4.43;100.00;98300.63;5002643;28;1247;-87
2023/12/03 03:58:05;;;;;;;;;;;-3.30;99.90;;;-4.48;100.00;98303.03;5002861;28;2038;-86
2023/12/03 04:00:32;;;;;;;;;;;-3.30;99.90;;;-4.49;100.00;98306.38;5016312;28;1469;-86
2023/12/03 04:02:59;;;;;;;;;;;-3.30;99.90;;;-4.46;100.00;98308.16;5018240;28;1105;-86
2023/12/03 04:05:26;;;;;;;;;;;-3.20;99.90;;;-4.48;100.00;98302.16;5018140;28;1286;-85
2023/12/03 04:07:53;;;;;;;;;;;-3.20;99.90;;;-4.41;100.00;98304.91;5004487;28;1914;-85
2023/12/03 04:10:21;;;;;;;;;;;-3.20;99.90;;;-4.30;100.00;98312.81;5016455;28;1178;-86
2023/12/03 04:12:48;;;;;;;;;;;-3.20;99.90;;;-4.39;100.00;98309.19;4999497;28;1180;-86
2023/12/03 04:15:16;;;;;;;;;;;-3.10;99.90;;;-4.35;100.00;98314.38;5016499;28;1333;-85
2023/12/03 04:17:44;;;;;;;;;;;-3.20;99.90;;;-4.26;100.00;98318.84;5014253;28;1316;-86
2023/12/03 04:20:11;;;;;;;;;;;-3.20;99.90;;;-4.37;100.00;98331.22;4996913;28;1195;-86
2023/12/03 04:22:38;;;;;;;;;;;-3.10;99.90;;;-4.41;100.00;98320.13;4998338;28;1442;-85
2023/12/03 04:25:08;;;;;;;;;;;-3.10;99.90;;;-4.25;100.00;98328.16;4998152;28;1654;-85
2023/12/03 04:27:35;;;;;;;;;;;-3.10;99.90;;;-4.29;100.00;98326.34;5017262;28;1942;-86
2023/12/03 04:30:05;;;;;;;;;;;-3.10;99.90;;;-4.27;100.00;98329.78;4980783;28;1446;-86
2023/12/03 04:32:32;;;;;;;;;;;-3.10;99.90;;;-4.26;100.00;98324.78;5017063;28;1055;-86
2023/12/03 04:34:59;;;;;;;;;;;-3.10;99.90;;;-4.23;100.00;98324.00;5001892;28;983;-86
2023/12/03 04:37:26;;;;;;;;;;;-3.10;99.90;;;-4.21;100.00;98330.81;4985290;28;1316;-84
2023/12/03 04:39:55;;;;;;;;;;;-3.10;99.90;;;-4.14;100.00;98323.41;5016393;28;1075;-85
2023/12/03 04:42:22;;;;;;;;;;;-3.10;99.90;;;-4.21;100.00;98322.38;5000421;28;1450;-85
2023/12/03 04:44:49;;;;;;;;;;;-3.10;99.90;;;-4.29;100.00;98328.88;5016060;28;1680;-85
2023/12/03 04:47:16;;;;;;;;;;;-3.00;99.90;;;-4.22;100.00;98326.56;5019067;28;2027;-85
2023/12/03 04:49:43;;;;;;;;;;;-3.00;99.90;;;-4.20;100.00;98326.59;5003747;28;1528;-84
2023/12/03 04:52:10;;;;;;;;;;;-3.10;99.90;;;-4.29;100.00;98321.28;5017350;28;1033;-85
2023/12/03 04:54:37;;;;;;;;;;;-3.00;99.90;;;-4.18;100.00;98324.97;4999140;28;1322;-84
2023/12/03 04:57:04;;;;;;;;;;;-3.00;99.90;;;-4.29;100.00;98324.69;5018514;28;1336;-84
2023/12/03 04:59:32;;;;;;;;;;;-3.00;99.90;;;-4.05;100.00;98328.72;5017679;28;1200;-85
2023/12/03 05:01:59;;;;;;;;;;;-3.10;99.90;;;-4.05;100.00;98321.09;4983926;28;1345;-85
2023/12/03 05:04:27;;;;;;;;;;;-3.10;99.90;;;-4.14;100.00;98325.94;4998773;28;1129;-84
2023/12/03 05:06:54;;;;;;;;;;;-3.10;99.90;;;-4.14;100.00;98321.72;5015733;28;2009;-85
2023/12/03 05:09:24;;;;;;;;;;;-3.00;99.90;;;-4.19;100.00;98320.72;5005560;28;1244;-84
2023/12/03 05:11:51;;;;;;;;;;;-3.00;99.90;;;-4.01;100.00;98321.22;5017416;28;1243;-86
2023/12/03 05:14:18;;;;;;;;;;;-3.00;99.90;;;-3.89;100.00;98322.38;5015599;28;1246;-84
2023/12/03 05:16:45;;;;;;;;;;;-3.10;99.90;;;-4.02;100.00;98319.50;5015928;28;1398;-85
2023/12/03 05:19:13;;;;;;;;;;;-3.00;99.90;;;-4.12;100.00;98314.16;5021620;28;1065;-86
2023/12/03 05:21:40;;;;;;;;;;;-2.90;99.90;;;-4.09;100.00;98321.84;4998205;28;1177;-83
2023/12/03 05:24:09;;;;;;;;;;;-2.80;99.90;;;-4.01;100.00;98310.22;4997628;28;1082;-83
2023/12/03 05:26:36;;;;;;;;;;;-2.90;99.90;;;-4.06;100.00;98315.19;5013339;28;1914;-84
2023/12/03 05:29:03;;;;;;;;;;;-2.90;99.90;;;-4.12;100.00;98324.28;5014134;28;1056;-84
2023/12/03 05:31:30;;;;;;;;;;;-2.80;99.90;;;-4.05;100.00;98332.09;5010682;28;1380;-84
2023/12/03 05:33:56;;;;;;;;;;;-2.90;99.90;;;-4.15;100.00;98331.78;4996596;28;1424;-86
2023/12/03 05:36:23;;;;;;;;;;;-2.90;99.90;;;-4.01;100.00;98333.06;5014604;28;1257;-84
2023/12/03 05:38:52;;;;;;;;;;;-3.00;99.90;;;-3.99;100.00;98326.34;5012515;28;1177;-84
2023/12/03 05:41:19;;;;;;;;;;;-2.90;99.90;;;-3.96;100.00;98328.09;5002077;28;1089;-86
2023/12/03 05:43:46;;;;;;;;;;;-2.90;99.90;;;-3.93;100.00;98326.50;5013071;28;1385;-86
2023/12/03 05:46:13;;;;;;;;;;;-2.90;99.90;;;-4.08;100.00;98331.16;4998456;28;1919;-86
2023/12/03 05:48:40;;;;;;;;;;;-2.90;99.90;;;-4.11;100.00;98331.91;4995388;28;1435;-86
2023/12/03 05:51:10;;;;;;;;;;;-2.90;99.90;;;-4.22;100.00;98331.66;4995187;28;1349;-86
2023/12/03 05:53:38;;;;;;;;;;;-2.90;99.90;;;-4.21;100.00;98337.56;5012635;28;1107;-85
2023/12/03 05:56:08;;;;;;;;;;;-2.90;99.90;;;-4.03;100.00;98348.22;5010135;28;1652;-86
2023/12/03 05:58:36;;;;;;;;;;;-2.90;99.90;;;-4.05;100.00;98342.25;5011290;28;1525;-86
2023/12/03 06:01:04;;;;;;;;;;;-2.80;99.90;;;-4.03;100.00;98349.91;4981748;28;1470;-86
2023/12/03 06:03:31;;;;;;;;;;;-2.80;99.90;;;-3.97;100.00;98351.72;5014860;28;1475;-86
2023/12/03 06:05:58;;;;;;;;;;;-2.80;99.90;;;-4.02;100.00;98352.47;5013718;28;1050;-86
2023/12/03 06:08:25;;;;;;;;;;;-2.90;99.90;;;-3.95;100.00;98347.56;5013359;28;1902;-87
2023/12/03 06:10:52;;;;;;;;;;;-2.80;99.90;;;-3.97;100.00;98349.19;5011187;28;1397;-87
2023/12/03 06:13:20;;;;;;;;;;;-2.80;99.90;;;-3.83;100.00;98347.88;4994826;28;1338;-86
2023/12/03 06:15:47;;;;;;;;;;;-2.90;99.90;;;-4.07;100.00;98353.16;4996171;28;1543;-86
2023/12/03 06:18:15;;;;;;;;;;;-2.80;99.90;;;-4.04;100.00;98354.13;5014969;28;1409;-86
2023/12/03 06:20:42;;;;;;;;;;;-2.80;99.90;;;-3.92;100.00;98358.66;5019710;28;1152;-87
2023/12/03 06:23:11;;;;;;;;;;;-2.90;99.90;;;-4.08;100.00;98352.31;4998818;28;1088;-87
2023/12/03 06:25:40;;;;;;;;;;;-2.80;99.90;;;-4.09;100.00;98352.25;5015441;28;1186;-87
2023/12/03 06:28:06;;;;;;;;;;;-2.80;99.90;;;-3.96;100.00;98351.78;5010710;28;1995;-87
2023/12/03 06:30:34;;;;;;;;;;;-2.80;99.90;;;-3.94;100.00;98350.16;5013148;28;1467;-86
2023/12/03 06:33:01;;;;;;;;;;;-2.70;99.90;;;-3.91;100.00;98347.69;5001678;28;1170;-86
2023/12/03 06:35:28;;;;;;;;;;;-2.70;99.90;;;-4.04;100.00;98345.63;5017108;28;1396;-86
2023/12/03 06:37:56;;;;;;;;;;;-2.80;99.90;;;-4.01;100.00;98343.19;5015813;28;1301;-86
2023/12/03 06:40:22;;;;;;;;;;;-2.80;99.90;;;-4.03;100.00;98339.75;5001143;28;1339;-86
2023/12/03 06:42:49;;;;;;;;;;;-2.70;99.90;;;-4.06;100.00;98340.53;4998398;28;1743;-86
2023/12/03 06:45:18;;;;;;;;;;;-2.80;99.90;;;-3.94;100.00;98334.09;4999351;28;1416;-86
2023/12/03 06:47:45;;;;;;;;;;;-2.80;99.90;;;-4.00;100.00;98337.28;5020294;28;1922;-86
2023/12/03 06:50:12;;;;;;;;;;;-2.80;99.90;;;-4.07;100.00;98335.41;4999325;28;1464;-85
2023/12/03 06:52:39;;;;;;;;;;;-2.80;99.90;;;-4.10;100.00;98341.25;4998796;28;1098;-86
2023/12/03 06:55:06;;;;;;;;;;;-2.80;99.90;;;-4.10;100.00;98348.03;5001338;28;1697;-86
2023/12/03 06:57:34;;;;;;;;;;;-2.90;99.90;;;-4.17;100.00;98346.09;5014886;28;1395;-86
2023/12/03 07:00:01;;;;;;;;;;;-2.90;99.90;;;-4.32;100.00;98342.34;4998934;28;1405;-86
2023/12/03 07:02:28;;;;;;;;;;;-2.90;99.90;;;-4.34;100.00;98343.97;5002325;28;1370;-85
2023/12/03 07:04:55;;;;;;;;;;;-2.90;99.90;;;-4.32;100.00;98351.63;5014684;28;1683;-85
2023/12/03 07:07:22;;;;;;;;;;;-3.00;99.90;;;-4.41;100.00;98354.75;5017749;28;1914;-85
2023/12/03 07:09:49;;;;;;;;;;;-3.00;99.90;;;-4.39;100.00;98358.19;4998164;28;1188;-86
2023/12/03 07:12:16;;;;;;;;;;;-3.00;99.90;;;-4.44;100.00;98355.50;5019234;28;1081;-86
2023/12/03 07:14:43;;;;;;;;;;;-3.10;99.90;;;-4.52;100.00;98359.47;5018190;28;1259;-86
2023/12/03 07:17:10;;;;;;;;;;;-3.10;99.90;;;-4.52;100.00;98366.22;5017303;28;1393;-85
2023/12/03 07:19:45;;;;;;;;;;;-3.20;99.90;;;-4.53;100.00;98365.38;4998344;28;1319;-86
2023/12/03 07:22:12;;;;;;;;;;;-3.20;99.90;;;-4.54;100.00;98367.84;4979379;28;1355;-85
2023/12/03 07:24:41;;;;;;;;;;;-3.20;99.90;;;-4.64;100.00;98382.78;5002553;28;1562;-85
2023/12/03 07:27:10;;;;;;;;;;;-3.20;99.90;;;-4.46;100.00;98397.69;4999084;28;2001;-86
2023/12/03 07:29:37;;;;;;;;;;;-3.20;99.90;;;-4.60;100.00;98406.56;4997130;28;1465;-86
2023/12/03 07:32:04;;;;;;;;;;;-3.30;99.90;;;-4.55;100.00;98412.59;4995698;28;1401;-85
2023/12/03 07:34:32;;;;;;;;;;;-3.20;99.90;;;-4.53;100.00;98412.66;5001326;28;1412;-86
2023/12/03 07:36:59;;;;;;;;;;;-3.30;99.90;;;-4.53;100.00;98403.38;5019547;28;1315;-86
2023/12/03 07:39:26;;;;;;;;;;;-3.20;99.90;;;-4.42;100.00;98401.19;5016187;28;1357;-86
2023/12/03 07:41:54;;;;;;;;;;;-3.30;99.90;;;-4.50;100.00;98413.59;5018603;28;1200;-85
2023/12/03 07:44:21;;;;;;;;;;;-3.20;99.90;;;-4.42;100.00;98411.31;4998700;28;1499;-86
2023/12/03 07:46:48;;;;;;;;;;;-3.10;99.90;;;-4.34;100.00;98414.94;4996560;28;2008;-86
2023/12/03 07:49:16;;;;;;;;;;;-3.20;99.90;;;-4.42;100.00;98417.25;5004530;28;1249;-86
2023/12/03 07:51:47;;;;;;;;;;;-3.20;99.90;;;-4.35;100.00;98415.75;5003597;28;1622;-86
2023/12/03 07:54:14;;;;;;;;;;;-3.20;99.90;;;-4.44;100.00;98423.06;5018177;28;1065;-86
2023/12/03 07:56:42;;;;;;;;;;;-3.10;99.90;;;-4.40;100.00;98419.84;5003591;28;1852;-86
2023/12/03 07:59:09;;;;;;;;;;;-3.10;99.90;;;-4.30;100.00;98411.66;5004772;28;1057;-86
2023/12/03 08:01:37;;;;;;;;;;;-3.10;99.90;;;-4.33;100.00;98413.25;5015884;28;1385;-86
2023/12/03 08:04:04;;;;;;;;;;;-3.10;99.90;;;-4.46;100.00;98412.88;5014010;28;1728;-85
2023/12/03 08:06:32;;;;;;;;;;;-3.10;99.90;;;-4.37;100.00;98411.47;4984687;28;1293;-86
2023/12/03 08:09:00;;;;;;;;;;;-3.10;99.90;;;-4.40;100.00;98404.63;4997099;28;1902;-86
2023/12/03 08:11:28;;;;;;;;;;;-3.00;99.90;;;-4.48;100.00;98406.91;5016213;28;1067;-87
2023/12/03 08:13:56;;;;;;;;;;;-3.10;99.90;;;-4.50;100.00;98402.63;4998737;28;1411;-86
2023/12/03 08:16:24;;;;;;;;;;;-3.10;99.90;;;-4.49;100.00;98405.22;5000255;28;1589;-86
2023/12/03 08:18:52;;;;;;;;;;;-3.10;99.90;;;-4.49;100.00;98401.81;5017441;28;1443;-86
2023/12/03 08:21:19;;;;;;;;;;;-3.20;99.90;;;-4.47;100.00;98398.50;5020323;28;1733;-85
2023/12/03 08:23:47;;;;;;;;;;;-3.10;99.90;;;-4.42;100.00;98403.72;4997399;28;1081;-86
2023/12/03 08:26:13;;;;;;;;;;;-3.10;99.90;;;-4.48;100.00;98401.84;5022174;28;1273;-85
2023/12/03 08:28:41;;;;;;;;;;;-3.10;99.90;;;-4.39;100.00;98400.41;5020151;28;1992;-85
2023/12/03 08:31:08;;;;;;;;;;;-3.10;99.90;;;-4.43;100.00;98402.84;4997048;28;1615;-85
2023/12/03 08:33:35;;;;;;;;;;;-3.10;99.90;;;-4.43;100.00;98404.50;5016045;28;1052;-86
2023/12/03 08:36:04;;;;;;;;;;;-3.10;99.90;;;-4.41;100.00;98392.75;5006976;28;1055;-86
2023/12/03 08:38:31;;;;;;;;;;;-3.10;99.90;;;-4.35;100.00;98403.06;5013589;28;1449;-85
2023/12/03 08:40:58;;;;;;;;;;;-3.10;99.90;;;-4.17;100.00;98409.47;5017622;28;1086;-86
2023/12/03 08:43:25;;;;;;;;;;;-3.10;99.90;;;-4.25;100.00;98410.13;4998140;28;1792;-86
2023/12/03 08:45:52;;;;;;;;;;;-3.00;99.90;;;-4.30;100.00;98409.13;5017800;28;1658;-86
2023/12/03 08:48:20;;;;;;;;;;;-3.00;99.90;;;-4.23;100.00;98400.03;5013245;28;1906;-85
2023/12/03 08:50:47;;;;;;;;;;;-3.00;99.90;;;-4.25;100.00;98404.19;5016895;28;1443;-85
2023/12/03 08:53:14;;;;;;;;;;;-3.00;99.90;;;-4.23;100.00;98407.66;5021196;28;1600;-85
2023/12/03 08:55:41;;;;;;;;;;;-3.00;99.90;;;-4.13;100.00;98408.75;5016862;28;1150;-87
2023/12/03 08:58:08;;;;;;;;;;;-3.00;99.90;;;-4.13;100.00;98413.84;5017695;28;1264;-85
2023/12/03 09:00:35;;;;;;;;;;;-3.00;99.90;;;-4.03;100.00;98414.16;4997240;28;1462;-86
2023/12/03 09:03:03;;;;;;;;;;;-2.90;99.90;;;-4.16;100.00;98407.00;5014347;28;1456;-85
2023/12/03 09:05:31;;;;;;;;;;;-2.90;99.90;;;-3.94;100.00;98408.47;4980690;28;1245;-85
2023/12/03 09:07:58;;;;;;;;;;;-2.80;99.90;;;-4.11;100.00;98410.53;5011831;28;1903;-88
2023/12/03 09:10:25;;;;;;;;;;;-2.90;99.90;;;-4.02;100.00;98413.31;5012720;28;1144;-86
2023/12/03 09:12:52;;;;;;;;;;;-2.90;99.90;;;-3.86;100.00;98407.00;5011732;28;1376;-84
2023/12/03 09:15:19;;;;;;;;;;;-2.80;99.90;;;-3.91;100.00;98407.69;5009764;28;1394;-86
2023/12/03 09:17:46;;;;;;;;;;;-2.80;99.90;;;-3.93;100.00;98406.78;5012801;28;1368;-85
2023/12/03 09:20:15;;;;;;;;;;;-2.80;99.90;;;-3.61;100.00;98413.59;5013613;28;1095;-85
2023/12/03 09:22:42;;;;;;;;;;;-2.70;99.90;;;-3.59;100.00;98409.44;5013580;28;1385;-85
2023/12/03 09:25:10;;;;;;;;;;;-2.70;99.90;;;-3.73;100.00;98405.66;4994605;28;1129;-85
2023/12/03 09:27:38;;;;;;;;;;;-2.60;99.90;;;-3.53;100.00;98415.50;4993027;28;1910;-86
2023/12/03 09:30:05;;;;;;;;;;;-2.60;99.90;;;-3.57;100.00;98404.41;5011496;28;1723;-85
2023/12/03 09:32:33;;;;;;;;;;;-2.50;99.90;;;-3.52;100.00;98412.13;4997938;28;1579;-85
2023/12/03 09:35:00;;;;;;;;;;;-2.60;99.90;;;-3.63;100.00;98394.09;5011583;28;1707;-86
2023/12/03 09:37:27;;;;;;;;;;;-2.50;99.90;;;-3.34;100.00;98399.06;5010897;28;1994;-85
2023/12/03 09:39:55;;;;;;;;;;;-2.50;99.90;;;-3.36;100.00;98389.72;5011658;28;1478;-85
2023/12/03 09:42:26;;;;;;;;;;;-2.40;99.90;;;-3.09;100.00;98387.84;5011371;28;1362;-84
2023/12/03 09:45:01;;;;;;;;;;;-2.40;99.90;;;-3.20;100.00;98387.56;5015491;28;1566;-86
2023/12/03 09:47:33;;;;;;;;;;;-2.30;99.90;;;-3.10;100.00;98378.50;4997174;28;2007;-85
2023/12/03 09:50:01;;;;;;;;;;;-2.20;99.90;;;-3.23;100.00;98377.34;5010948;28;1388;-85
2023/12/03 09:52:29;;;;;;;;;;;-2.20;99.90;;;-3.23;100.00;98377.34;5014745;28;1163;-86
2023/12/03 09:55:00;;;;;;;;;;;-2.10;99.90;;;-3.10;100.00;98370.88;4998938;28;1236;-86
2023/12/03 09:57:29;;;;;;;;;;;-2.20;99.90;;;-2.93;100.00;98361.13;5015962;28;1383;-85
2023/12/03 09:59:58;;;;;;;;;;;-2.00;99.90;;;-3.09;100.00;98354.84;4997907;28;1780;-85
2023/12/03 10:02:28;;;;;;;;;;;-1.90;99.90;;;-2.97;100.00;98363.59;4998000;28;1604;-87
2023/12/03 10:04:56;;;;;;;;;;;-1.80;99.90;;;-3.02;100.00;98366.84;4998156;28;1495;-86
2023/12/03 10:07:28;;;;;;;;;;;-1.80;99.90;;;-2.86;100.00;98366.38;5016009;28;2041;-86
2023/12/03 10:10:00;;;;;;;;;;;-1.70;99.90;;;-2.95;100.00;98364.47;5003085;28;1629;-86
2023/12/03 10:12:47;;;;;;;;;;;-1.70;99.90;;;-2.84;100.00;98369.81;5018177;28;1520;-86
2023/12/03 10:15:15;;;;;;;;;;;-1.70;99.90;;;-2.87;100.00;98363.78;4998812;28;1440;-85
2023/12/03 10:17:43;;;;;;;;;;;-1.80;99.90;;;-2.75;100.00;98362.41;5016242;28;1274;-85
2023/12/03 10:24:03;;;;;;;;;;;-1.70;99.90;;;-2.60;100.00;98358.47;5012529;28;1624;-86
2023/12/03 10:26:31;;;;;;;;;;;-1.70;99.90;;;-2.71;100.00;98355.72;4999361;28;1465;-86
2023/12/03 10:28:58;;;;;;;;;;;-1.60;99.90;;;-2.58;100.00;98362.81;5012868;28;2005;-87
2023/12/03 10:31:26;;;;;;;;;;;-1.60;99.90;;;-2.29;100.00;98361.69;5014178;28;1312;-87
2023/12/03 10:33:53;;;;;;;;;;;-1.60;99.90;;;-2.40;100.00;98352.16;5014215;28;1406;-86
2023/12/03 10:36:20;;;;;;;;;;;-1.60;99.90;;;-2.34;100.00;98349.75;4995015;28;1367;-87
2023/12/03 10:38:47;;;;;;;;;;;-1.50;99.90;;;-2.33;100.00;98346.38;4999547;28;1649;-86
2023/12/03 10:41:14;;;;;;;;;;;-1.40;99.90;;;-2.35;100.00;98345.50;5012659;28;1701;-86
2023/12/03 10:43:42;;;;;;;;;;;-1.30;99.90;;;-2.29;100.00;98337.13;5011817;28;1100;-85
2023/12/03 10:46:13;;;;;;;;;;;-1.30;99.90;;;-2.24;100.00;98330.44;5009713;28;1428;-86
2023/12/03 10:48:41;;;;;;;;;;;-1.20;99.90;;;-2.39;100.00;98330.16;5007694;28;1942;-85
2023/12/03 10:51:10;;;;;;;;;;;-1.20;99.90;;;-2.40;100.00;98331.81;4984616;28;1448;-86
2023/12/03 10:53:39;;;;;;;;;;;-1.20;99.90;;;-2.19;100.00;98333.94;5015581;28;1263;-85
2023/12/03 10:56:07;;;;;;;;;;;-1.20;99.90;;;-2.16;100.00;98338.25;5013468;28;1519;-86
2023/12/03 10:58:37;;;;;;;;;;;-1.20;99.90;;;-2.38;100.00;98326.75;5013025;28;1479;-85
2023/12/03 11:01:19;;;;;;;;;;;-1.20;99.90;;;-2.12;100.00;98329.84;5009463;28;1551;-85
2023/12/03 11:03:46;;;;;;;;;;;-1.20;99.90;;;-2.29;100.00;98318.47;5000012;28;1811;-86
2023/12/03 11:06:14;;;;;;;;;;;-1.20;99.90;;;-2.20;100.00;98327.13;5013928;28;1414;-85
2023/12/03 11:08:43;;;;;;;;;;;-1.20;99.90;;;-2.01;100.00;98323.25;4999703;28;1906;-85
2023/12/03 11:11:12;;;;;;;;;;;-1.20;99.90;;;-2.20;100.00;98316.09;4997824;28;1588;-85
2023/12/03 11:13:41;;;;;;;;;;;-1.10;99.90;;;-2.01;100.00;98312.22;4964699;28;1453;-86
2023/12/03 11:16:13;;;;;;;;;;;-1.10;99.90;;;-2.24;100.00;98307.53;5012718;28;1403;-86
2023/12/03 11:19:03;;;;;;;;;;;-1.10;99.90;;;-2.27;100.00;98304.94;4994610;28;1214;-86
2023/12/03 11:21:39;;;;;;;;;;;-1.10;99.90;;;-2.17;100.00;98314.47;5013386;28;1401;-87
2023/12/03 11:24:47;;;;;;;;;;;-1.00;99.90;;;-2.00;100.00;98302.09;4996963;28;1584;-86